createdAt,value
2022-08-29T00:00:50.590Z,32.29
2022-08-29T00:01:45.380Z,32.42
2022-08-29T00:02:39.655Z,32.39
2022-08-29T00:03:38.037Z,32.38
2022-08-29T00:04:31.759Z,32.58
2022-08-29T00:05:32.715Z,32.43
2022-08-29T00:06:25.172Z,32.50
2022-08-29T00:07:18.701Z,32.39
2022-08-29T00:08:12.244Z,32.30
2022-08-29T00:10:12.983Z,32.46
2022-08-29T00:11:05.250Z,32.32
2022-08-29T00:11:55.912Z,32.28
2022-08-29T00:12:46.009Z,32.61
2022-08-29T00:13:35.298Z,32.30
2022-08-29T00:14:32.071Z,32.57
2022-08-29T00:15:22.918Z,32.34
2022-08-29T00:16:14.887Z,32.31
2022-08-29T00:17:04.626Z,32.47
2022-08-29T00:17:55.774Z,32.30
2022-08-29T00:18:49.467Z,32.47
2022-08-29T00:20:41.302Z,32.41
2022-08-29T00:21:34.067Z,32.56
2022-08-29T00:22:27.789Z,32.43
2022-08-29T00:23:20.624Z,32.40
2022-08-29T00:24:12.328Z,32.42
2022-08-29T00:26:07.877Z,32.63
2022-08-29T00:27:02.228Z,32.36
2022-08-29T00:27:54.694Z,32.31
2022-08-29T00:28:48.381Z,32.50
2022-08-29T00:29:40.311Z,32.46
2022-08-29T00:31:34.800Z,32.37
2022-08-29T00:32:26.908Z,32.55
2022-08-29T00:33:20.214Z,32.57
2022-08-29T00:34:10.266Z,32.49
2022-08-29T00:35:07.808Z,32.40
2022-08-29T00:36:00.757Z,32.47
2022-08-29T00:36:53.721Z,32.51
2022-08-29T00:37:48.347Z,32.50
2022-08-29T00:38:42.853Z,32.30
2022-08-29T00:39:34.971Z,32.19
2022-08-29T00:40:29.758Z,32.56
2022-08-29T00:41:23.094Z,32.50
2022-08-29T00:42:17.393Z,32.40
2022-08-29T00:43:11.767Z,32.38
2022-08-29T00:44:04.678Z,32.46
2022-08-29T00:44:57.671Z,32.46
2022-08-29T00:46:45.780Z,32.37
2022-08-29T00:47:36.721Z,32.44
2022-08-29T00:48:31.138Z,32.36
2022-08-29T00:49:22.451Z,32.34
2022-08-29T00:50:16.964Z,32.32
2022-08-29T00:51:15.847Z,32.22
2022-08-29T00:52:09.315Z,32.30
2022-08-29T00:52:59.675Z,32.32
2022-08-29T00:53:51.743Z,32.16
2022-08-29T00:54:44.934Z,32.20
2022-08-29T00:55:38.159Z,32.11
2022-08-29T00:57:32.005Z,32.43
2022-08-29T00:58:24.671Z,32.34
2022-08-29T00:59:29.492Z,32.30
2022-08-29T01:00:25.718Z,32.45
2022-08-29T01:01:18.079Z,32.21
2022-08-29T01:03:04.505Z,32.21
2022-08-29T01:03:55.046Z,32.31
2022-08-29T01:04:46.057Z,32.28
2022-08-29T01:05:35.686Z,32.34
2022-08-29T01:06:27.734Z,32.18
2022-08-29T01:07:23.554Z,32.41
2022-08-29T01:08:15.219Z,32.27
2022-08-29T01:09:03.878Z,32.36
2022-08-29T01:09:54.297Z,32.37
2022-08-29T01:10:47.914Z,32.28
2022-08-29T01:11:38.546Z,32.11
2022-08-29T01:12:34.670Z,32.07
2022-08-29T01:13:25.408Z,32.15
2022-08-29T01:14:15.692Z,32.16
2022-08-29T01:15:05.050Z,32.10
2022-08-29T01:15:53.838Z,32.24
2022-08-29T01:16:41.576Z,32.12
2022-08-29T01:17:38.149Z,32.11
2022-08-29T01:18:29.193Z,32.18
2022-08-29T01:19:39.380Z,32.13
2022-08-29T01:20:32.448Z,32.22
2022-08-29T01:21:14.771Z,32.31
2022-08-29T01:22:14.614Z,32.11
2022-08-29T01:23:11.189Z,32.18
2022-08-29T01:24:01.643Z,32.11
2022-08-29T01:24:57.221Z,32.06
2022-08-29T01:25:47.762Z,32.06
2022-08-29T01:26:40.673Z,32.04
2022-08-29T01:27:29.866Z,31.94
2022-08-29T01:28:11.085Z,31.91
2022-08-29T01:28:58.512Z,32.20
2022-08-29T01:29:50.552Z,32.01
2022-08-29T01:30:42.612Z,32.02
2022-08-29T01:31:37.876Z,32.01
2022-08-29T01:32:37.954Z,31.80
2022-08-29T01:33:25.934Z,32.06
2022-08-29T01:34:14.211Z,31.96
2022-08-29T01:35:03.100Z,32.28
2022-08-29T01:35:54.865Z,32.06
2022-08-29T01:36:47.374Z,32.03
2022-08-29T01:37:34.438Z,32.28
2022-08-29T01:38:25.440Z,32.11
2022-08-29T01:39:14.136Z,32.17
2022-08-29T01:40:04.801Z,31.93
2022-08-29T01:40:52.684Z,32.31
2022-08-29T01:41:39.851Z,32.14
2022-08-29T01:42:29.445Z,32.10
2022-08-29T01:43:27.951Z,32.17
2022-08-29T01:44:22.191Z,32.10
2022-08-29T01:45:13.764Z,31.98
2022-08-29T01:46:01.931Z,32.23
2022-08-29T01:46:50.979Z,32.14
2022-08-29T01:47:39.638Z,32.01
2022-08-29T01:50:20.421Z,32.10
2022-08-29T01:52:20.519Z,31.93
2022-08-29T01:54:14.014Z,32.05
2022-08-29T01:55:57.391Z,32.04
2022-08-29T01:57:59.893Z,32.13
2022-08-29T02:31:01.985Z,32.62
2022-08-29T02:48:11.996Z,32.62
2022-08-29T02:49:14.179Z,32.51
2022-08-29T06:01:07.330Z,31.82
2022-08-29T06:01:57.929Z,31.96
2022-08-29T06:03:50.230Z,31.83
2022-08-29T06:04:42.961Z,31.68
2022-08-29T06:05:32.207Z,31.91
2022-08-29T06:06:21.187Z,31.78
2022-08-29T06:07:14.454Z,31.91
2022-08-29T06:08:11.400Z,32.04
2022-08-29T06:09:03.239Z,31.88
2022-08-29T06:09:52.627Z,31.73
2022-08-29T06:11:56.985Z,31.90
2022-08-29T06:12:52.141Z,31.98
2022-08-29T06:13:42.665Z,31.95
2022-08-29T06:14:40.531Z,31.95
2022-08-29T06:17:00.620Z,32.38
2022-08-29T06:17:31.951Z,32.44
2022-08-29T06:18:03.273Z,32.19
2022-08-29T06:18:35.909Z,32.09
2022-08-29T06:19:07.804Z,32.21
2022-08-29T06:19:39.319Z,32.17
2022-08-29T06:20:10.859Z,32.52
2022-08-29T06:20:42.246Z,32.36
2022-08-29T06:21:13.872Z,32.51
2022-08-29T06:21:45.291Z,32.50
2022-08-29T06:22:16.702Z,32.43
2022-08-29T06:22:48.098Z,32.33
2022-08-29T06:23:19.486Z,32.39
2022-08-29T06:23:54.883Z,32.37
2022-08-29T06:24:26.237Z,32.39
2022-08-29T06:24:58.513Z,32.35
2022-08-29T06:25:39.507Z,32.10
2022-08-29T06:26:11.754Z,32.33
2022-08-29T06:26:43.625Z,32.12
2022-08-29T06:27:15.616Z,32.59
2022-08-29T06:27:47.159Z,32.58
2022-08-29T06:28:23.806Z,32.64
2022-08-29T06:28:55.517Z,32.41
2022-08-29T06:29:26.957Z,32.39
2022-08-29T06:30:01.763Z,32.29
2022-08-29T06:30:33.575Z,32.77
2022-08-29T06:31:31.025Z,32.50
2022-08-29T06:32:02.544Z,32.54
2022-08-29T06:32:33.924Z,32.47
2022-08-29T06:33:05.350Z,32.79
2022-08-29T06:33:36.931Z,32.61
2022-08-29T06:34:08.931Z,32.70
2022-08-29T06:34:40.399Z,32.68
2022-08-29T06:35:11.767Z,32.97
2022-08-29T06:35:43.144Z,32.68
2022-08-29T06:36:14.530Z,32.73
2022-08-29T06:36:45.979Z,32.78
2022-08-29T06:37:17.450Z,32.73
2022-08-29T06:37:48.873Z,32.82
2022-08-29T06:38:20.733Z,32.68
2022-08-29T06:38:52.761Z,32.81
2022-08-29T06:39:24.153Z,32.84
2022-08-29T06:39:55.658Z,33.06
2022-08-29T06:40:27.195Z,32.84
2022-08-29T06:41:02.259Z,33.04
2022-08-29T06:41:33.695Z,32.88
2022-08-29T06:42:05.197Z,32.88
2022-08-29T06:42:36.698Z,32.88
2022-08-29T06:43:08.280Z,33.04
2022-08-29T06:43:39.963Z,32.92
2022-08-29T06:44:11.353Z,33.08
2022-08-29T06:44:44.615Z,32.91
2022-08-29T06:45:16.182Z,32.89
2022-08-29T06:45:47.619Z,32.83
2022-08-29T06:46:20.324Z,33.25
2022-08-29T06:46:51.752Z,32.85
2022-08-29T06:47:23.151Z,33.04
2022-08-29T06:47:54.512Z,33.17
2022-08-29T06:48:29.445Z,32.91
2022-08-29T06:49:01.600Z,33.19
2022-08-29T06:49:32.995Z,32.98
2022-08-29T06:50:04.590Z,32.99
2022-08-29T06:50:36.892Z,33.04
2022-08-29T06:51:08.340Z,33.04
2022-08-29T06:51:40.295Z,33.22
2022-08-29T06:52:11.704Z,33.25
2022-08-29T06:52:43.099Z,33.21
2022-08-29T06:53:27.348Z,33.36
2022-08-29T06:54:03.701Z,33.34
2022-08-29T06:54:38.528Z,33.31
2022-08-29T06:55:10.247Z,33.27
2022-08-29T06:55:42.159Z,33.21
2022-08-29T06:56:14.567Z,33.00
2022-08-29T06:56:46.012Z,33.17
2022-08-29T06:57:17.372Z,33.18
2022-08-29T06:57:48.760Z,33.03
2022-08-29T06:58:20.193Z,33.37
2022-08-29T06:58:51.577Z,33.26
2022-08-29T06:59:23.009Z,33.55
2022-08-29T06:59:54.533Z,33.32
2022-08-29T07:00:25.979Z,33.23
2022-08-29T07:00:57.480Z,33.29
2022-08-29T07:01:29.007Z,33.36
2022-08-29T07:02:00.620Z,33.39
2022-08-29T07:02:32.127Z,33.39
2022-08-29T07:03:03.748Z,33.13
2022-08-29T07:03:35.307Z,33.24
2022-08-29T07:04:06.790Z,33.22
2022-08-29T07:04:45.992Z,33.62
2022-08-29T07:05:17.573Z,33.49
2022-08-29T07:05:52.663Z,33.62
2022-08-29T07:06:24.278Z,33.84
2022-08-29T07:06:55.750Z,33.49
2022-08-29T07:07:27.241Z,33.86
2022-08-29T07:07:58.881Z,33.58
2022-08-29T07:08:30.578Z,33.75
2022-08-29T07:09:02.087Z,33.79
2022-08-29T07:09:33.516Z,33.63
2022-08-29T07:10:05.123Z,33.63
2022-08-29T07:10:36.812Z,33.40
2022-08-29T07:11:08.331Z,33.57
2022-08-29T07:12:25.597Z,33.69
2022-08-29T07:12:59.832Z,33.62
2022-08-29T07:13:31.158Z,33.71
2022-08-29T07:14:02.617Z,33.75
2022-08-29T07:14:34.001Z,33.78
2022-08-29T07:15:05.793Z,33.83
2022-08-29T07:15:37.578Z,33.75
2022-08-29T07:16:09.662Z,33.85
2022-08-29T07:16:41.307Z,33.83
2022-08-29T07:17:12.778Z,33.77
2022-08-29T07:18:00.002Z,33.68
2022-08-29T07:18:31.964Z,33.54
2022-08-29T07:19:03.971Z,33.91
2022-08-29T07:19:35.453Z,33.96
2022-08-29T07:20:07.081Z,33.84
2022-08-29T07:20:38.946Z,33.90
2022-08-29T07:21:11.268Z,33.99
2022-08-29T07:21:42.710Z,34.20
2022-08-29T07:22:14.181Z,34.05
2022-08-29T07:22:45.609Z,33.96
2022-08-29T07:23:17.146Z,34.20
2022-08-29T07:23:49.220Z,34.11
2022-08-29T07:24:24.644Z,34.22
2022-08-29T07:24:56.500Z,33.84
2022-08-29T07:25:27.982Z,34.00
2022-08-29T07:26:12.516Z,33.72
2022-08-29T07:26:44.294Z,34.01
2022-08-29T07:27:15.717Z,34.12
2022-08-29T07:27:47.582Z,33.97
2022-08-29T07:28:23.741Z,34.17
2022-08-29T07:28:57.018Z,33.86
2022-08-29T07:29:29.089Z,34.11
2022-08-29T07:30:00.570Z,34.01
2022-08-29T07:30:32.126Z,34.22
2022-08-29T07:31:04.085Z,34.02
2022-08-29T07:31:35.595Z,34.10
2022-08-29T07:32:07.022Z,34.05
2022-08-29T07:32:38.718Z,34.04
2022-08-29T07:33:10.894Z,33.98
2022-08-29T07:33:42.391Z,34.26
2022-08-29T07:34:14.098Z,34.17
2022-08-29T07:34:45.593Z,33.91
2022-08-29T07:35:19.799Z,34.11
2022-08-29T07:36:01.286Z,34.16
2022-08-29T07:36:34.430Z,34.11
2022-08-29T07:37:06.246Z,34.04
2022-08-29T07:37:37.770Z,34.37
2022-08-29T07:38:09.250Z,34.31
2022-08-29T07:38:40.766Z,34.25
2022-08-29T07:39:13.315Z,34.37
2022-08-29T07:39:44.872Z,34.28
2022-08-29T07:40:17.830Z,34.41
2022-08-29T07:40:49.383Z,34.36
2022-08-29T07:41:20.790Z,34.38
2022-08-29T07:41:52.374Z,34.54
2022-08-29T07:42:23.815Z,34.59
2022-08-29T07:42:55.253Z,34.58
2022-08-29T07:43:28.074Z,34.47
2022-08-29T07:43:59.806Z,34.50
2022-08-29T07:44:34.322Z,34.59
2022-08-29T07:45:06.648Z,34.43
2022-08-29T07:45:38.614Z,34.33
2022-08-29T07:46:13.063Z,34.48
2022-08-29T07:46:44.532Z,34.45
2022-08-29T07:47:16.092Z,34.67
2022-08-29T07:47:47.542Z,34.45
2022-08-29T07:48:22.883Z,34.59
2022-08-29T07:48:54.691Z,34.41
2022-08-29T07:49:36.048Z,34.44
2022-08-29T07:50:12.840Z,34.54
2022-08-29T07:50:44.291Z,34.55
2022-08-29T07:51:16.475Z,34.55
2022-08-29T07:51:47.919Z,34.61
2022-08-29T07:52:19.436Z,34.86
2022-08-29T07:52:50.886Z,34.73
2022-08-29T07:53:22.326Z,34.71
2022-08-29T07:53:53.875Z,34.82
2022-08-29T07:54:25.342Z,34.59
2022-08-29T07:54:56.752Z,34.60
2022-08-29T07:55:28.247Z,34.58
2022-08-29T07:55:59.719Z,34.50
2022-08-29T07:56:37.028Z,34.79
2022-08-29T07:57:09.315Z,34.67
2022-08-29T07:57:40.729Z,34.87
2022-08-29T07:58:12.140Z,34.77
2022-08-29T07:58:43.538Z,34.92
2022-08-29T07:59:15.123Z,34.91
2022-08-29T07:59:46.490Z,34.61
2022-08-29T08:00:18.198Z,34.60
2022-08-29T08:00:49.867Z,34.91
2022-08-29T08:01:21.944Z,34.97
2022-08-29T08:01:53.582Z,34.73
2022-08-29T08:02:25.155Z,34.87
2022-08-29T08:02:56.654Z,34.80
2022-08-29T08:03:28.249Z,34.91
2022-08-29T08:03:59.662Z,34.94
2022-08-29T08:04:31.131Z,34.80
2022-08-29T08:05:02.561Z,35.08
2022-08-29T08:05:38.163Z,35.17
2022-08-29T08:06:09.719Z,34.86
2022-08-29T08:06:41.288Z,34.62
2022-08-29T08:07:14.214Z,34.80
2022-08-29T08:07:47.412Z,35.03
2022-08-29T08:08:19.324Z,34.60
2022-08-29T08:08:50.943Z,35.01
2022-08-29T08:09:22.352Z,34.88
2022-08-29T08:09:53.824Z,35.13
2022-08-29T08:10:25.253Z,34.98
2022-08-29T08:10:56.738Z,35.06
2022-08-29T08:11:28.351Z,35.00
2022-08-29T08:11:59.962Z,35.02
2022-08-29T08:12:31.546Z,35.27
2022-08-29T08:13:03.057Z,35.15
2022-08-29T08:13:34.596Z,34.97
2022-08-29T08:14:06.111Z,35.09
2022-08-29T08:14:37.592Z,35.30
2022-08-29T08:15:09.293Z,35.17
2022-08-29T08:15:40.769Z,35.11
2022-08-29T08:16:13.360Z,34.83
2022-08-29T08:16:45.009Z,34.87
2022-08-29T08:17:16.459Z,35.17
2022-08-29T08:17:47.869Z,35.28
2022-08-29T08:18:19.354Z,34.99
2022-08-29T08:18:50.873Z,35.10
2022-08-29T08:19:22.304Z,35.34
2022-08-29T08:19:53.793Z,35.08
2022-08-29T08:20:25.316Z,34.90
2022-08-29T08:20:56.767Z,34.95
2022-08-29T08:21:28.214Z,34.95
2022-08-29T08:21:59.622Z,35.05
2022-08-29T08:22:31.076Z,35.17
2022-08-29T08:23:02.506Z,35.11
2022-08-29T08:23:33.944Z,35.26
2022-08-29T08:24:05.450Z,35.00
2022-08-29T08:24:37.623Z,34.92
2022-08-29T08:25:09.213Z,35.01
2022-08-29T08:25:40.656Z,35.11
2022-08-29T08:26:12.287Z,35.17
2022-08-29T08:26:43.822Z,35.11
2022-08-29T08:27:15.256Z,35.02
2022-08-29T08:27:46.986Z,35.01
2022-08-29T08:28:18.456Z,34.90
2022-08-29T08:28:49.841Z,35.03
2022-08-29T08:29:21.343Z,34.78
2022-08-29T08:29:52.928Z,35.19
2022-08-29T08:30:27.155Z,35.06
2022-08-29T08:31:03.573Z,35.05
2022-08-29T08:31:36.791Z,35.03
2022-08-29T08:32:08.323Z,35.21
2022-08-29T08:32:42.079Z,35.13
2022-08-29T08:33:17.268Z,35.13
2022-08-29T08:33:48.836Z,35.19
2022-08-29T08:34:20.345Z,35.34
2022-08-29T08:34:53.668Z,35.21
2022-08-29T08:35:26.011Z,35.15
2022-08-29T08:35:57.523Z,35.36
2022-08-29T08:36:29.848Z,35.03
2022-08-29T08:37:01.263Z,35.26
2022-08-29T08:37:32.774Z,35.15
2022-08-29T08:38:04.472Z,35.10
2022-08-29T08:38:35.939Z,35.21
2022-08-29T08:39:07.434Z,35.24
2022-08-29T08:39:38.946Z,35.09
2022-08-29T08:40:13.643Z,35.29
2022-08-29T08:40:53.989Z,35.26
2022-08-29T08:41:34.393Z,35.35
2022-08-29T08:42:13.410Z,35.23
2022-08-29T08:42:45.180Z,35.11
2022-08-29T08:43:18.471Z,35.22
2022-08-29T08:44:00.001Z,35.30
2022-08-29T08:44:35.396Z,35.09
2022-08-29T08:45:08.012Z,35.22
2022-08-29T08:45:40.534Z,35.33
2022-08-29T08:46:12.047Z,35.36
2022-08-29T08:46:44.254Z,35.14
2022-08-29T08:47:16.244Z,35.17
2022-08-29T08:47:54.778Z,35.04
2022-08-29T08:48:26.645Z,34.99
2022-08-29T08:48:58.103Z,35.26
2022-08-29T08:49:32.537Z,35.30
2022-08-29T08:50:09.852Z,34.95
2022-08-29T08:50:55.126Z,35.04
2022-08-29T08:51:28.613Z,34.86
2022-08-29T08:52:02.070Z,35.16
2022-08-29T08:52:37.471Z,35.01
2022-08-29T08:53:47.896Z,35.12
2022-08-29T08:54:23.701Z,35.23
2022-08-29T08:55:02.080Z,35.11
2022-08-29T08:55:52.599Z,35.17
2022-08-29T08:56:37.942Z,34.73
2022-08-29T08:57:10.232Z,34.64
2022-08-29T08:57:44.128Z,34.88
2022-08-29T08:58:29.107Z,34.77
2022-08-29T08:59:08.415Z,34.66
2022-08-29T08:59:40.563Z,34.49
2022-08-29T09:00:12.204Z,34.78
2022-08-29T09:00:45.174Z,34.66
2022-08-29T09:01:24.493Z,34.67
2022-08-29T09:01:56.011Z,35.00
2022-08-29T09:02:32.993Z,34.66
2022-08-29T09:03:17.715Z,34.50
2022-08-29T09:04:07.916Z,34.78
2022-08-29T09:04:42.714Z,34.55
2022-08-29T09:05:27.045Z,34.52
2022-08-29T09:06:01.559Z,34.43
2022-08-29T09:06:51.433Z,34.61
2022-08-29T09:07:27.715Z,34.28
2022-08-29T09:08:05.539Z,34.59
2022-08-29T09:08:46.718Z,34.41
2022-08-29T09:09:25.559Z,34.56
2022-08-29T09:10:15.718Z,34.69
2022-08-29T09:10:47.122Z,34.55
2022-08-29T09:11:20.300Z,34.84
2022-08-29T09:11:51.744Z,34.75
2022-08-29T09:12:41.962Z,34.49
2022-08-29T09:13:32.229Z,34.80
2022-08-29T09:14:08.152Z,34.90
2022-08-29T09:14:42.312Z,34.66
2022-08-29T09:15:15.152Z,34.64
2022-08-29T09:15:47.324Z,34.61
2022-08-29T09:16:25.798Z,34.52
2022-08-29T09:16:57.335Z,34.40
2022-08-29T09:17:29.713Z,34.41
2022-08-29T09:18:13.407Z,34.75
2022-08-29T09:18:52.576Z,34.63
2022-08-29T09:19:25.631Z,34.43
2022-08-29T09:19:57.102Z,34.76
2022-08-29T09:20:30.437Z,34.59
2022-08-29T09:21:09.983Z,34.67
2022-08-29T09:21:59.422Z,34.66
2022-08-29T09:22:32.905Z,34.63
2022-08-29T09:23:07.495Z,34.62
2022-08-29T09:23:48.723Z,34.58
2022-08-29T09:24:27.230Z,34.74
2022-08-29T09:25:03.011Z,34.74
2022-08-29T09:25:34.431Z,34.62
2022-08-29T09:26:05.944Z,34.72
2022-08-29T09:26:39.024Z,34.79
2022-08-29T09:27:17.449Z,34.92
2022-08-29T09:27:48.848Z,34.85
2022-08-29T09:28:20.562Z,35.08
2022-08-29T09:28:52.018Z,34.91
2022-08-29T09:29:24.831Z,34.96
2022-08-29T09:30:03.971Z,34.75
2022-08-29T09:30:35.631Z,34.83
2022-08-29T09:31:15.937Z,34.74
2022-08-29T09:31:49.003Z,34.88
2022-08-29T09:32:22.648Z,35.14
2022-08-29T09:32:58.456Z,35.06
2022-08-29T09:33:39.599Z,35.16
2022-08-29T09:34:12.739Z,34.82
2022-08-29T09:35:07.397Z,34.97
2022-08-29T09:35:37.481Z,34.89
2022-08-29T09:36:12.013Z,35.03
2022-08-29T09:36:52.621Z,34.87
2022-08-29T09:37:24.069Z,34.74
2022-08-29T09:37:56.572Z,34.71
2022-08-29T09:38:28.020Z,34.81
2022-08-29T09:39:12.349Z,34.62
2022-08-29T09:39:51.990Z,34.82
2022-08-29T09:40:23.685Z,34.80
2022-08-29T09:40:58.732Z,35.00
2022-08-29T09:41:30.747Z,34.79
2022-08-29T09:42:11.143Z,35.04
2022-08-29T09:42:43.519Z,34.88
2022-08-29T09:43:19.835Z,34.93
2022-08-29T09:43:51.480Z,34.81
2022-08-29T09:44:25.133Z,34.71
2022-08-29T09:44:57.369Z,34.96
2022-08-29T09:45:28.881Z,34.72
2022-08-29T09:46:03.338Z,34.75
2022-08-29T09:46:34.735Z,34.64
2022-08-29T09:47:25.672Z,34.73
2022-08-29T09:48:10.616Z,34.64
2022-08-29T09:48:46.205Z,34.87
2022-08-29T09:49:17.643Z,34.52
2022-08-29T09:50:09.241Z,34.85
2022-08-29T09:50:40.720Z,34.43
2022-08-29T09:51:47.628Z,34.73
2022-08-29T09:52:24.356Z,34.69
2022-08-29T09:52:56.692Z,34.72
2022-08-29T09:53:28.210Z,34.74
2022-08-29T09:54:15.174Z,34.72
2022-08-29T09:54:46.584Z,34.72
2022-08-29T09:55:17.947Z,34.56
2022-08-29T09:55:49.347Z,34.48
2022-08-29T09:56:24.541Z,34.62
2022-08-29T09:57:00.209Z,34.76
2022-08-29T09:57:38.849Z,34.59
2022-08-29T09:58:26.199Z,34.71
2022-08-29T09:59:04.577Z,34.71
2022-08-29T09:59:44.674Z,34.76
2022-08-29T10:00:17.935Z,34.44
2022-08-29T10:00:59.892Z,34.55
2022-08-29T10:01:31.953Z,34.53
2022-08-29T10:02:08.431Z,34.39
2022-08-29T10:02:43.460Z,34.37
2022-08-29T10:03:21.996Z,34.44
2022-08-29T10:04:01.682Z,34.55
2022-08-29T10:04:37.059Z,34.78
2022-08-29T10:05:13.259Z,34.92
2022-08-29T10:05:45.144Z,34.89
2022-08-29T10:06:17.456Z,34.89
2022-08-29T10:06:52.667Z,34.98
2022-08-29T10:07:27.389Z,34.74
2022-08-29T10:07:58.841Z,34.71
2022-08-29T10:08:31.497Z,34.91
2022-08-29T10:09:07.110Z,34.80
2022-08-29T10:09:38.677Z,35.14
2022-08-29T10:10:22.449Z,34.86
2022-08-29T10:10:56.165Z,34.86
2022-08-29T10:11:35.242Z,34.87
2022-08-29T10:12:10.954Z,34.87
2022-08-29T10:12:45.004Z,34.72
2022-08-29T10:13:34.376Z,34.82
2022-08-29T10:14:06.791Z,35.05
2022-08-29T10:14:50.012Z,34.92
2022-08-29T10:15:46.945Z,34.86
2022-08-29T10:16:27.588Z,34.81
2022-08-29T10:17:03.387Z,34.82
2022-08-29T10:17:39.074Z,34.87
2022-08-29T10:18:13.395Z,34.84
2022-08-29T10:18:47.562Z,34.59
2022-08-29T10:19:21.617Z,34.60
2022-08-29T10:19:53.050Z,34.74
2022-08-29T10:20:25.972Z,34.46
2022-08-29T10:21:04.833Z,34.58
2022-08-29T10:21:39.227Z,34.77
2022-08-29T10:22:29.922Z,34.55
2022-08-29T10:23:06.331Z,34.46
2022-08-29T10:23:52.708Z,34.48
2022-08-29T10:24:26.996Z,34.31
2022-08-29T10:25:04.338Z,34.51
2022-08-29T10:25:36.753Z,34.57
2022-08-29T10:26:28.461Z,34.23
2022-08-29T10:27:18.263Z,34.28
2022-08-29T10:27:52.741Z,34.37
2022-08-29T10:28:33.317Z,34.51
2022-08-29T10:29:19.996Z,34.46
2022-08-29T10:30:14.963Z,34.38
2022-08-29T10:30:52.046Z,34.53
2022-08-29T10:31:28.193Z,34.45
2022-08-29T10:32:05.994Z,34.53
2022-08-29T10:32:55.745Z,34.68
2022-08-29T10:33:35.422Z,34.79
2022-08-29T10:34:09.471Z,34.54
2022-08-29T10:34:44.733Z,34.70
2022-08-29T10:35:16.167Z,34.56
2022-08-29T10:35:55.633Z,34.50
2022-08-29T10:36:33.431Z,34.63
2022-08-29T10:37:09.871Z,34.86
2022-08-29T10:37:43.954Z,34.79
2022-08-29T10:38:18.014Z,34.69
2022-08-29T10:39:07.861Z,34.76
2022-08-29T10:39:55.785Z,34.56
2022-08-29T10:40:31.581Z,34.53
2022-08-29T10:41:23.447Z,34.47
2022-08-29T10:41:58.508Z,34.54
2022-08-29T10:42:29.968Z,34.49
2022-08-29T10:43:12.831Z,34.68
2022-08-29T10:44:07.334Z,34.42
2022-08-29T10:44:57.799Z,34.45
2022-08-29T10:45:32.509Z,34.42
2022-08-29T10:46:06.783Z,34.60
2022-08-29T10:46:56.461Z,34.52
2022-08-29T10:47:39.471Z,34.64
2022-08-29T10:48:11.683Z,34.63
2022-08-29T10:48:46.500Z,34.34
2022-08-29T10:49:23.656Z,34.70
2022-08-29T10:50:16.929Z,34.77
2022-08-29T10:50:56.611Z,34.72
2022-08-29T10:51:28.019Z,34.88
2022-08-29T10:51:59.427Z,34.94
2022-08-29T10:52:34.283Z,34.95
2022-08-29T10:53:25.074Z,34.85
2022-08-29T10:54:16.780Z,34.78
2022-08-29T10:54:48.264Z,34.69
2022-08-29T10:55:21.707Z,34.95
2022-08-29T10:55:53.163Z,34.72
2022-08-29T10:56:27.702Z,34.87
2022-08-29T10:56:59.312Z,34.76
2022-08-29T10:57:56.657Z,34.73
2022-08-29T10:58:28.162Z,34.96
2022-08-29T10:58:59.578Z,34.81
2022-08-29T10:59:30.997Z,34.80
2022-08-29T11:00:05.273Z,34.90
2022-08-29T11:00:42.110Z,34.85
2022-08-29T11:01:13.613Z,34.84
2022-08-29T11:01:55.789Z,34.80
2022-08-29T11:02:30.109Z,34.55
2022-08-29T11:03:11.502Z,34.63
2022-08-29T11:03:49.148Z,34.53
2022-08-29T11:04:22.844Z,34.48
2022-08-29T11:04:54.979Z,34.36
2022-08-29T11:05:27.089Z,34.50
2022-08-29T11:05:59.603Z,34.57
2022-08-29T11:06:41.342Z,34.58
2022-08-29T11:07:23.161Z,34.78
2022-08-29T11:08:01.358Z,34.46
2022-08-29T11:08:38.028Z,34.78
2022-08-29T11:09:14.673Z,34.61
2022-08-29T11:09:50.325Z,34.45
2022-08-29T11:10:25.542Z,34.69
2022-08-29T11:10:57.036Z,34.62
2022-08-29T11:11:29.027Z,34.40
2022-08-29T11:12:06.704Z,34.88
2022-08-29T11:12:57.223Z,34.80
2022-08-29T11:13:29.975Z,34.73
2022-08-29T11:14:05.762Z,34.54
2022-08-29T11:14:41.171Z,34.65
2022-08-29T11:15:18.254Z,34.60
2022-08-29T11:16:01.676Z,34.74
2022-08-29T11:16:36.176Z,34.88
2022-08-29T11:17:08.624Z,34.62
2022-08-29T11:17:40.835Z,34.74
2022-08-29T11:18:18.612Z,34.61
2022-08-29T11:19:06.175Z,34.65
2022-08-29T11:19:46.318Z,34.72
2022-08-29T11:20:19.199Z,34.67
2022-08-29T11:20:51.918Z,34.61
2022-08-29T11:21:26.310Z,34.68
2022-08-29T11:22:00.889Z,34.65
2022-08-29T11:22:36.026Z,34.76
2022-08-29T11:23:09.341Z,34.52
2022-08-29T11:23:41.522Z,34.52
2022-08-29T11:24:13.504Z,34.77
2022-08-29T11:24:47.196Z,34.82
2022-08-29T11:25:19.492Z,34.89
2022-08-29T11:25:50.940Z,34.63
2022-08-29T11:26:22.295Z,34.99
2022-08-29T11:26:59.813Z,34.71
2022-08-29T11:27:34.501Z,34.78
2022-08-29T11:28:18.076Z,34.77
2022-08-29T11:29:02.004Z,34.73
2022-08-29T11:29:56.470Z,34.82
2022-08-29T11:30:30.295Z,34.77
2022-08-29T11:31:21.621Z,35.00
2022-08-29T11:32:02.023Z,34.59
2022-08-29T11:32:36.035Z,34.83
2022-08-29T11:33:16.856Z,34.61
2022-08-29T11:33:57.471Z,34.91
2022-08-29T11:34:51.981Z,34.74
2022-08-29T11:35:23.474Z,34.97
2022-08-29T11:36:05.072Z,34.80
2022-08-29T11:36:41.729Z,34.71
2022-08-29T11:37:24.393Z,34.81
2022-08-29T11:38:14.249Z,34.77
2022-08-29T11:38:45.662Z,34.79
2022-08-29T11:39:23.213Z,34.82
2022-08-29T11:40:00.766Z,34.65
2022-08-29T11:41:43.233Z,34.83
2022-08-29T11:42:15.002Z,34.55
2022-08-29T11:42:50.167Z,34.64
2022-08-29T11:43:24.218Z,34.64
2022-08-29T11:43:57.094Z,34.66
2022-08-29T11:44:33.597Z,34.75
2022-08-29T11:45:05.416Z,34.42
2022-08-29T11:45:38.462Z,34.49
2022-08-29T11:46:10.107Z,34.45
2022-08-29T11:46:49.013Z,34.57
2022-08-29T11:47:56.909Z,34.52
2022-08-29T11:48:31.620Z,34.43
2022-08-29T11:49:28.911Z,34.56
2022-08-29T11:50:06.350Z,34.42
2022-08-29T11:50:38.417Z,34.58
2022-08-29T11:51:28.825Z,34.29
2022-08-29T11:52:22.378Z,34.35
2022-08-29T11:52:55.359Z,34.47
2022-08-29T11:53:30.372Z,34.29
2022-08-29T11:54:20.559Z,34.43
2022-08-29T11:54:53.009Z,34.48
2022-08-29T11:55:27.068Z,34.56
2022-08-29T11:56:13.327Z,34.52
2022-08-29T11:56:44.759Z,34.40
2022-08-29T11:57:16.336Z,34.18
2022-08-29T11:57:49.084Z,34.56
2022-08-29T11:58:20.462Z,34.50
2022-08-29T11:58:52.702Z,34.35
2022-08-29T11:59:59.368Z,34.27
2022-08-29T12:00:33.468Z,34.26
2022-08-29T12:01:04.854Z,34.19
2022-08-29T12:01:39.653Z,34.46
2022-08-29T12:02:11.900Z,34.10
2022-08-29T12:02:48.310Z,34.28
2022-08-29T12:03:40.675Z,34.54
2022-08-29T12:04:13.909Z,34.28
2022-08-29T12:05:11.870Z,34.27
2022-08-29T12:05:54.537Z,34.28
2022-08-29T12:06:29.650Z,34.15
2022-08-29T12:07:01.438Z,34.04
2022-08-29T12:07:33.086Z,34.13
2022-08-29T12:08:36.225Z,34.05
2022-08-29T12:09:13.789Z,33.69
2022-08-29T12:09:50.196Z,33.69
2022-08-29T12:10:21.586Z,33.75
2022-08-29T12:10:54.172Z,33.88
2022-08-29T12:11:45.507Z,33.88
2022-08-29T12:12:18.344Z,34.02
2022-08-29T12:12:51.168Z,33.82
2022-08-29T12:13:41.634Z,33.85
2022-08-29T12:14:27.947Z,33.70
2022-08-29T12:14:59.432Z,33.67
2022-08-29T12:15:30.830Z,33.90
2022-08-29T12:16:08.586Z,33.76
2022-08-29T12:16:48.989Z,34.04
2022-08-29T12:17:24.591Z,33.94
2022-08-29T12:18:02.292Z,34.03
2022-08-29T12:18:36.684Z,33.99
2022-08-29T12:19:08.410Z,33.91
2022-08-29T12:19:46.080Z,34.05
2022-08-29T12:20:18.661Z,34.05
2022-08-29T12:20:50.687Z,33.86
2022-08-29T12:21:31.555Z,33.88
2022-08-29T12:22:02.996Z,33.98
2022-08-29T12:22:46.286Z,34.43
2022-08-29T12:23:18.363Z,34.18
2022-08-29T12:23:50.057Z,34.30
2022-08-29T12:24:39.600Z,34.22
2022-08-29T12:25:23.203Z,34.30
2022-08-29T12:26:15.805Z,34.44
2022-08-29T12:26:46.658Z,34.50
2022-08-29T12:27:21.460Z,34.45
2022-08-29T12:27:55.815Z,34.34
2022-08-29T12:28:30.746Z,34.48
2022-08-29T12:29:02.281Z,34.48
2022-08-29T12:29:44.482Z,34.51
2022-08-29T12:30:16.431Z,34.56
2022-08-29T12:30:48.960Z,34.54
2022-08-29T12:31:51.342Z,34.68
2022-08-29T12:32:53.594Z,34.53
2022-08-29T12:33:37.445Z,34.50
2022-08-29T12:34:10.384Z,34.68
2022-08-29T12:35:00.201Z,34.54
2022-08-29T12:35:38.526Z,34.60
2022-08-29T12:36:09.895Z,34.42